createdAt,value
2023-03-06T00:00:40.505Z,23.13
2023-03-06T00:03:07.406Z,24.10
2023-03-06T00:05:33.990Z,33.17
2023-03-06T00:08:00.469Z,24.80
2023-03-06T00:10:29.445Z,27.67
2023-03-06T00:12:58.985Z,26.03
2023-03-06T00:15:29.309Z,28.20
2023-03-06T00:17:56.594Z,26.97
2023-03-06T00:20:24.002Z,32.80
2023-03-06T00:22:50.531Z,30.17
2023-03-06T00:25:19.652Z,33.70
2023-03-06T00:27:46.681Z,34.73
2023-03-06T00:30:16.264Z,36.37
2023-03-06T00:32:43.753Z,38.40
2023-03-06T00:35:11.146Z,39.30
2023-03-06T00:37:37.935Z,42.10
2023-03-06T00:40:06.329Z,44.67
2023-03-06T00:42:32.962Z,43.80
2023-03-06T00:44:59.519Z,43.87
2023-03-06T00:47:26.121Z,45.87
2023-03-06T00:49:52.824Z,47.80
2023-03-06T00:52:19.549Z,46.60
2023-03-06T00:54:46.112Z,43.53
2023-03-06T00:57:12.729Z,44.37
2023-03-06T00:59:39.286Z,40.63
2023-03-06T01:02:05.912Z,51.53
2023-03-06T01:04:32.880Z,41.53
2023-03-06T01:06:59.667Z,41.93
2023-03-06T01:09:26.481Z,36.67
2023-03-06T01:11:53.189Z,44.97
2023-03-06T01:14:20.158Z,41.90
2023-03-06T01:16:47.640Z,38.13
2023-03-06T01:19:14.879Z,36.10
2023-03-06T01:21:41.456Z,35.87
2023-03-06T01:24:08.451Z,34.97
2023-03-06T01:26:35.082Z,37.47
2023-03-06T01:29:01.907Z,41.80
2023-03-06T01:31:28.513Z,38.97
2023-03-06T01:33:55.268Z,40.80
2023-03-06T01:36:21.917Z,38.63
2023-03-06T01:38:48.485Z,42.27
2023-03-06T01:41:16.046Z,34.73
2023-03-06T01:43:45.225Z,36.43
2023-03-06T01:46:17.710Z,41.70
2023-03-06T01:48:44.941Z,38.50
2023-03-06T01:51:12.352Z,39.60
2023-03-06T01:53:39.968Z,44.50
2023-03-06T01:56:07.140Z,39.27
2023-03-06T01:58:34.034Z,42.83
2023-03-06T02:01:00.593Z,37.63
2023-03-06T02:03:31.184Z,39.30
2023-03-06T02:05:58.941Z,40.07
2023-03-06T02:08:26.852Z,37.67
2023-03-06T02:11:05.872Z,42.53
2023-03-06T02:13:32.649Z,44.93
2023-03-06T02:15:59.472Z,40.23
2023-03-06T02:18:26.241Z,39.40
2023-03-06T02:20:55.240Z,39.10
2023-03-06T02:23:48.402Z,43.83
2023-03-06T02:26:15.534Z,40.60
2023-03-06T02:28:44.473Z,37.53
2023-03-06T02:31:22.176Z,38.60
2023-03-06T02:34:24.170Z,39.33
2023-03-06T02:36:53.489Z,38.43
2023-03-06T02:39:22.655Z,39.37
2023-03-06T02:41:49.271Z,38.17
2023-03-06T02:44:15.892Z,37.90
2023-03-06T02:46:42.706Z,32.33
2023-03-06T02:49:09.356Z,34.80
2023-03-06T02:51:36.192Z,31.90
2023-03-06T02:54:02.745Z,33.53
2023-03-06T02:56:29.421Z,29.37
2023-03-06T02:58:56.136Z,27.30
2023-03-06T03:01:23.086Z,30.07
2023-03-06T03:03:49.921Z,28.00
2023-03-06T03:06:16.582Z,28.90
2023-03-06T03:08:43.598Z,22.77
2023-03-06T03:11:10.474Z,28.03
2023-03-06T03:13:37.670Z,25.60
2023-03-06T03:16:07.191Z,24.47
2023-03-06T03:18:34.238Z,22.57
2023-03-06T03:21:00.805Z,22.00
2023-03-06T03:23:27.819Z,19.17
2023-03-06T03:25:54.451Z,21.20
2023-03-06T03:28:21.108Z,22.10
2023-03-06T03:30:47.717Z,25.20
2023-03-06T03:33:14.262Z,27.13
2023-03-06T03:35:41.232Z,24.30
2023-03-06T03:38:07.936Z,22.37
2023-03-06T03:40:34.996Z,22.90
2023-03-06T03:43:01.645Z,27.63
2023-03-06T03:45:28.455Z,23.20
2023-03-06T03:47:54.986Z,20.30
2023-03-06T03:50:21.526Z,23.40
2023-03-06T03:52:48.080Z,21.43
2023-03-06T03:55:15.086Z,23.97
2023-03-06T03:57:43.149Z,20.47
2023-03-06T04:00:14.830Z,26.27
2023-03-06T04:02:42.713Z,20.57
2023-03-06T04:05:10.500Z,23.07
2023-03-06T04:07:37.593Z,24.00
2023-03-06T04:10:05.376Z,26.17
2023-03-06T04:12:32.025Z,25.20
2023-03-06T04:14:59.110Z,26.03
2023-03-06T04:17:26.260Z,26.10
2023-03-06T04:19:52.886Z,24.60
2023-03-06T04:22:19.798Z,25.27
2023-03-06T04:24:49.602Z,26.20
2023-03-06T04:27:16.168Z,24.67
2023-03-06T04:29:44.642Z,31.30
2023-03-06T04:32:11.213Z,27.97
2023-03-06T04:34:38.289Z,27.57
2023-03-06T04:37:05.286Z,29.90
2023-03-06T04:39:31.954Z,32.20
2023-03-06T04:41:58.613Z,28.83
2023-03-06T04:44:25.253Z,29.73
2023-03-06T04:46:51.921Z,29.63
2023-03-06T04:49:18.427Z,32.70
2023-03-06T04:51:45.140Z,31.93
2023-03-06T04:54:12.049Z,35.47
2023-03-06T04:56:39.034Z,32.87
2023-03-06T04:59:05.578Z,36.53
2023-03-06T05:01:32.625Z,36.37
2023-03-06T05:03:59.147Z,34.77
2023-03-06T05:06:26.335Z,42.43
2023-03-06T05:08:53.005Z,38.17
2023-03-06T05:11:19.581Z,32.47
2023-03-06T05:13:46.147Z,36.00
2023-03-06T05:16:12.848Z,33.63
2023-03-06T05:18:39.705Z,30.50
2023-03-06T05:21:06.704Z,31.97
2023-03-06T05:23:38.565Z,27.03
2023-03-06T05:26:11.332Z,27.10
2023-03-06T05:28:38.515Z,31.57
2023-03-06T05:31:05.719Z,31.17
2023-03-06T05:33:33.654Z,27.20
2023-03-06T05:36:00.235Z,25.80
2023-03-06T05:38:27.316Z,28.13
2023-03-06T05:40:54.088Z,29.23
2023-03-06T05:43:22.206Z,27.73
2023-03-06T05:45:50.528Z,26.53
2023-03-06T05:48:17.130Z,26.23
2023-03-06T05:50:43.849Z,23.67
2023-03-06T05:53:10.676Z,25.03
2023-03-06T05:55:37.603Z,21.77
2023-03-06T05:58:04.156Z,20.87
2023-03-06T06:00:30.993Z,21.60
2023-03-06T06:03:00.606Z,21.20
2023-03-06T06:05:27.315Z,21.53
2023-03-06T06:07:53.906Z,19.87
2023-03-06T06:10:20.618Z,18.40
2023-03-06T06:12:47.187Z,21.40
2023-03-06T06:15:15.352Z,18.60
2023-03-06T06:17:42.544Z,21.03
2023-03-06T06:20:09.698Z,19.43
2023-03-06T06:22:38.010Z,21.00
2023-03-06T06:25:07.243Z,13.80
2023-03-06T06:27:33.804Z,19.87
2023-03-06T06:30:00.404Z,14.50
2023-03-06T06:32:27.001Z,15.40
2023-03-06T06:34:53.943Z,15.67
2023-03-06T06:37:20.735Z,18.77
2023-03-06T06:39:47.738Z,17.10
2023-03-06T06:42:31.475Z,18.73
2023-03-06T06:45:00.855Z,23.03
2023-03-06T06:47:27.469Z,21.10
2023-03-06T06:49:55.641Z,21.07
2023-03-06T06:52:23.470Z,19.67
2023-03-06T06:54:50.308Z,28.33
2023-03-06T06:57:17.350Z,24.43
2023-03-06T06:59:43.975Z,23.07
2023-03-06T07:02:12.740Z,29.10
2023-03-06T07:04:52.394Z,27.57
2023-03-06T07:07:24.751Z,40.67
2023-03-06T07:09:52.075Z,37.97
2023-03-06T07:12:18.798Z,31.00
2023-03-06T07:14:45.423Z,33.70
2023-03-06T07:17:12.026Z,39.43
2023-03-06T07:19:39.587Z,38.80
2023-03-06T07:22:07.625Z,35.67
2023-03-06T07:24:34.420Z,31.50
2023-03-06T07:27:00.938Z,34.53
2023-03-06T07:29:27.535Z,35.63
2023-03-06T07:31:54.094Z,29.53
2023-03-06T07:34:20.674Z,36.30
2023-03-06T07:36:47.242Z,33.40
2023-03-06T07:39:13.847Z,31.87
2023-03-06T07:41:40.414Z,27.70
2023-03-06T07:44:07.044Z,33.00
2023-03-06T07:46:33.657Z,33.17
2023-03-06T07:49:00.367Z,38.87
2023-03-06T07:51:27.244Z,30.97
2023-03-06T07:53:54.071Z,37.00
2023-03-06T07:56:20.874Z,30.33
2023-03-06T07:58:47.694Z,35.03
2023-03-06T08:01:19.876Z,32.97
2023-03-06T08:03:47.090Z,33.80
2023-03-06T08:06:35.102Z,28.53
2023-03-06T08:09:02.194Z,35.23
2023-03-06T08:11:30.474Z,30.13
2023-03-06T08:13:58.029Z,31.07
2023-03-06T08:16:26.697Z,28.73
2023-03-06T08:18:54.401Z,29.30
2023-03-06T08:21:23.675Z,34.27
2023-03-06T08:23:50.637Z,33.47
2023-03-06T08:26:23.978Z,28.03
2023-03-06T08:28:54.560Z,34.50
2023-03-06T08:31:27.315Z,33.03
2023-03-06T08:33:54.911Z,35.07
2023-03-06T08:36:21.940Z,28.03
2023-03-06T08:38:48.465Z,30.83
2023-03-06T08:41:15.247Z,28.80
2023-03-06T08:43:41.877Z,29.67
2023-03-06T08:46:09.632Z,33.80
2023-03-06T08:48:36.235Z,34.43
2023-03-06T08:51:02.768Z,38.47
2023-03-06T08:53:42.188Z,35.73
2023-03-06T08:56:20.854Z,35.83
2023-03-06T08:58:48.505Z,33.43
2023-03-06T09:01:21.116Z,39.77
2023-03-06T09:03:48.597Z,37.63
2023-03-06T09:06:15.255Z,37.47
2023-03-06T09:08:43.870Z,41.07
2023-03-06T09:11:11.881Z,38.30
2023-03-06T09:13:38.692Z,42.67
2023-03-06T09:16:05.558Z,36.90
2023-03-06T09:18:32.053Z,41.07
2023-03-06T09:20:58.560Z,39.40
2023-03-06T09:23:25.095Z,37.80
2023-03-06T09:25:55.897Z,42.40
2023-03-06T09:28:23.071Z,34.20
2023-03-06T09:30:50.324Z,40.57
2023-03-06T09:33:17.438Z,36.93
2023-03-06T09:35:55.828Z,37.60
2023-03-06T09:38:25.316Z,38.50
2023-03-06T09:40:57.766Z,39.00
2023-03-06T09:43:29.385Z,46.63
2023-03-06T09:45:57.655Z,39.50
2023-03-06T09:49:13.961Z,42.27
2023-03-06T09:52:07.518Z,42.37
2023-03-06T09:54:44.038Z,34.60
2023-03-06T09:57:22.263Z,37.60
2023-03-06T09:59:51.820Z,38.30
2023-03-06T10:02:36.716Z,37.53
2023-03-06T10:05:06.704Z,40.40
2023-03-06T10:07:47.222Z,34.30
2023-03-06T10:10:19.928Z,44.50
2023-03-06T10:13:03.269Z,33.50
2023-03-06T10:15:36.024Z,30.07
2023-03-06T10:18:03.869Z,25.87
2023-03-06T10:20:54.904Z,28.40
2023-03-06T10:23:37.314Z,25.83
2023-03-06T10:26:17.138Z,25.03
2023-03-06T10:29:21.001Z,26.37
2023-03-06T10:31:54.813Z,27.63
2023-03-06T10:34:23.493Z,26.97
2023-03-06T10:36:50.568Z,27.60
2023-03-06T10:39:22.098Z,25.17
2023-03-06T10:41:49.334Z,24.93
2023-03-06T10:44:15.952Z,30.23
2023-03-06T10:46:44.753Z,28.53
2023-03-06T10:49:35.652Z,27.20
2023-03-06T10:52:14.324Z,28.20
2023-03-06T10:54:43.225Z,27.70
2023-03-06T10:57:20.240Z,26.83
2023-03-06T10:59:53.720Z,27.90
2023-03-06T11:02:29.382Z,26.57
2023-03-06T11:04:57.049Z,27.47
2023-03-06T11:07:34.581Z,25.67
2023-03-06T11:10:05.579Z,25.50
2023-03-06T11:12:36.602Z,22.73
2023-03-06T11:15:17.413Z,24.93
2023-03-06T11:18:23.596Z,25.33
2023-03-06T11:20:55.033Z,15.50
2023-03-06T11:23:36.753Z,24.27
2023-03-06T11:26:15.348Z,17.80
2023-03-06T11:29:03.654Z,18.83
2023-03-06T11:32:02.526Z,18.47
2023-03-06T11:34:51.180Z,16.40
2023-03-06T11:37:25.972Z,16.90
2023-03-06T11:39:59.444Z,16.53
2023-03-06T11:42:34.584Z,15.40
2023-03-06T11:45:26.029Z,15.03
2023-03-06T11:48:08.081Z,16.80
2023-03-06T11:50:37.667Z,16.40
2023-03-06T11:53:05.965Z,17.70
2023-03-06T11:55:35.458Z,19.43
2023-03-06T11:58:38.899Z,18.83
2023-03-06T12:01:25.824Z,17.10
2023-03-06T12:04:17.142Z,16.50
2023-03-06T12:07:01.897Z,16.80
2023-03-06T12:09:47.369Z,17.63
2023-03-06T12:12:37.732Z,14.83
2023-03-06T12:15:04.208Z,14.10
2023-03-06T12:17:56.067Z,13.13
2023-03-06T12:20:44.106Z,12.77
2023-03-06T12:23:16.808Z,12.43
2023-03-06T12:25:49.014Z,11.50
2023-03-06T12:28:24.705Z,11.10
2023-03-06T12:30:58.452Z,13.07
2023-03-06T12:33:43.252Z,12.13
2023-03-06T12:36:28.868Z,14.67
2023-03-06T12:39:34.033Z,12.97
2023-03-06T12:42:26.540Z,9.23
2023-03-06T12:44:58.690Z,11.10
2023-03-06T12:47:27.973Z,12.40
2023-03-06T12:50:38.152Z,10.40
2023-03-06T12:53:07.524Z,11.27
2023-03-06T12:55:42.571Z,8.67
2023-03-06T12:58:31.038Z,8.40
2023-03-06T13:01:20.004Z,8.43
2023-03-06T13:03:58.755Z,6.70
2023-03-06T13:06:36.632Z,8.63
2023-03-06T13:09:12.209Z,6.40
2023-03-06T13:12:03.771Z,7.00
2023-03-06T13:14:34.355Z,7.77
2023-03-06T13:17:20.524Z,7.67
2023-03-06T13:19:48.209Z,9.60
2023-03-06T13:22:35.303Z,8.43
2023-03-06T13:25:30.669Z,9.67
2023-03-06T13:27:57.140Z,10.87
2023-03-06T13:30:24.166Z,12.13
2023-03-06T13:32:52.836Z,10.20
2023-03-06T13:35:34.576Z,10.63
2023-03-06T13:38:01.296Z,9.10
2023-03-06T13:40:36.431Z,10.77
2023-03-06T13:43:08.959Z,10.30
2023-03-06T13:45:43.306Z,12.10
2023-03-06T13:48:43.131Z,10.33
2023-03-06T13:51:19.736Z,12.77
2023-03-06T13:54:17.447Z,11.90
2023-03-06T13:57:11.577Z,19.33
2023-03-06T14:00:08.199Z,12.23
2023-03-06T14:02:54.752Z,12.37
2023-03-06T14:05:22.141Z,12.90
2023-03-06T14:08:02.981Z,10.33
2023-03-06T14:10:31.938Z,14.30
2023-03-06T14:13:03.308Z,28.57
2023-03-06T14:15:37.476Z,14.93
2023-03-06T14:18:07.355Z,10.83
2023-03-06T14:20:39.869Z,10.27
2023-03-06T14:23:21.653Z,11.63
2023-03-06T14:25:54.559Z,10.53
2023-03-06T14:28:23.975Z,11.70
2023-03-06T14:30:52.299Z,14.00
2023-03-06T14:33:37.321Z,12.80
2023-03-06T14:36:08.195Z,12.70
2023-03-06T14:38:38.382Z,11.60
2023-03-06T14:41:06.036Z,14.50
2023-03-06T14:43:32.913Z,12.80
2023-03-06T14:46:06.423Z,15.43
2023-03-06T14:48:45.353Z,14.80
2023-03-06T14:51:16.341Z,16.23
2023-03-06T14:53:44.730Z,15.50
2023-03-06T14:56:16.692Z,11.70
2023-03-06T14:58:59.803Z,12.30
2023-03-06T15:01:35.384Z,11.50
2023-03-06T15:04:02.652Z,12.90
2023-03-06T15:06:41.271Z,7.73
2023-03-06T15:09:24.482Z,8.63
2023-03-06T15:11:55.200Z,8.00
2023-03-06T15:14:35.946Z,7.17
2023-03-06T15:17:18.110Z,9.00
2023-03-06T15:19:46.986Z,9.90
2023-03-06T15:22:39.367Z,6.30
2023-03-06T15:25:24.363Z,7.47
2023-03-06T15:28:20.458Z,5.10
2023-03-06T15:31:04.405Z,5.00
2023-03-06T15:33:30.997Z,5.17
2023-03-06T15:36:02.530Z,6.43
2023-03-06T15:38:44.689Z,4.67
2023-03-06T15:41:27.799Z,4.43
2023-03-06T15:43:54.769Z,5.13
2023-03-06T15:46:21.334Z,4.30
2023-03-06T15:48:56.598Z,4.83
2023-03-06T15:51:24.858Z,4.63
2023-03-06T15:53:53.084Z,4.80
2023-03-06T15:56:43.867Z,4.40
2023-03-06T15:59:16.925Z,4.70
2023-03-06T16:01:43.679Z,6.53
2023-03-06T16:04:10.270Z,5.13
2023-03-06T16:06:37.694Z,4.17
2023-03-06T16:09:05.886Z,4.97
2023-03-06T16:11:43.331Z,5.67
2023-03-06T16:14:18.913Z,5.13
2023-03-06T16:16:46.137Z,6.50
2023-03-06T16:19:25.311Z,5.50
2023-03-06T16:21:52.680Z,5.90
2023-03-06T16:24:19.379Z,3.90
2023-03-06T16:26:47.916Z,10.03
2023-03-06T16:29:18.953Z,5.23
2023-03-06T16:31:45.593Z,13.53
2023-03-06T16:34:12.114Z,4.83
2023-03-06T16:36:38.870Z,6.43
2023-03-06T16:39:06.517Z,6.37
2023-03-06T16:41:33.104Z,6.67
2023-03-06T16:43:59.746Z,6.67
2023-03-06T16:46:33.318Z,4.60
2023-03-06T16:49:02.649Z,11.53
2023-03-06T16:51:29.697Z,8.23
2023-03-06T16:53:56.315Z,10.33
2023-03-06T16:56:22.955Z,12.00
2023-03-06T16:58:49.914Z,12.43
2023-03-06T17:01:18.736Z,19.10
2023-03-06T17:03:45.808Z,13.33
2023-03-06T17:06:23.255Z,14.60
2023-03-06T17:08:50.919Z,16.80
2023-03-06T17:11:17.968Z,17.40
2023-03-06T17:13:44.564Z,16.97
2023-03-06T17:16:16.521Z,23.83
2023-03-06T17:18:44.781Z,23.13
2023-03-06T17:21:12.506Z,15.50
2023-03-06T17:23:39.081Z,19.70
2023-03-06T17:26:07.147Z,20.33
2023-03-06T17:28:37.259Z,18.13
2023-03-06T17:31:14.921Z,21.23
2023-03-06T17:33:41.890Z,20.93
2023-03-06T17:36:09.548Z,15.20
2023-03-06T17:38:36.354Z,17.00
2023-03-06T17:41:05.040Z,20.23
2023-03-06T17:43:32.258Z,19.17
2023-03-06T17:46:12.001Z,17.27
2023-03-06T17:48:39.399Z,26.60
2023-03-06T17:51:06.734Z,17.43
2023-03-06T17:53:33.377Z,16.43
2023-03-06T17:56:00.141Z,18.77
2023-03-06T17:58:27.347Z,19.47
2023-03-06T18:00:54.288Z,18.70
2023-03-06T18:03:21.170Z,18.80
2023-03-06T18:05:47.710Z,26.00
2023-03-06T18:08:14.447Z,20.07
2023-03-06T18:10:41.638Z,20.60
2023-03-06T18:13:10.460Z,21.10
2023-03-06T18:15:40.496Z,23.43
2023-03-06T18:18:08.512Z,23.77
2023-03-06T18:20:40.944Z,20.77
2023-03-06T18:23:07.473Z,23.40
2023-03-06T18:25:34.115Z,30.87
2023-03-06T18:28:00.849Z,25.43
2023-03-06T18:30:27.451Z,28.00
2023-03-06T18:32:54.669Z,28.20
2023-03-06T18:35:21.776Z,28.27
2023-03-06T18:37:48.377Z,29.57
2023-03-06T18:40:15.346Z,26.83
2023-03-06T18:42:42.033Z,26.97
2023-03-06T18:45:09.216Z,24.73
2023-03-06T18:47:35.925Z,23.93
2023-03-06T18:50:05.589Z,23.67
2023-03-06T18:52:33.856Z,26.83
2023-03-06T18:55:00.404Z,26.53
2023-03-06T18:57:29.277Z,25.13
2023-03-06T18:59:56.849Z,27.93
2023-03-06T19:02:23.736Z,29.50
2023-03-06T19:04:50.356Z,26.33
2023-03-06T19:07:17.102Z,29.07
2023-03-06T19:09:44.454Z,23.53
2023-03-06T19:12:11.652Z,24.40
2023-03-06T19:14:38.333Z,27.37
2023-03-06T19:17:04.996Z,28.10
2023-03-06T19:19:31.521Z,29.40
2023-03-06T19:21:58.399Z,26.60
2023-03-06T19:24:25.110Z,27.17
2023-03-06T19:26:52.357Z,29.43
2023-03-06T19:29:18.925Z,26.50
2023-03-06T19:31:45.503Z,28.30
2023-03-06T19:34:12.044Z,27.80
2023-03-06T19:36:40.708Z,30.53
2023-03-06T19:39:08.154Z,27.57
2023-03-06T19:41:35.130Z,32.97
2023-03-06T19:44:03.318Z,29.77
2023-03-06T19:46:30.102Z,25.80
2023-03-06T19:48:59.269Z,23.50
2023-03-06T19:51:26.712Z,30.70
2023-03-06T19:53:53.479Z,29.30
2023-03-06T19:56:22.080Z,26.57
2023-03-06T19:58:49.066Z,27.83
2023-03-06T20:01:18.346Z,35.53
2023-03-06T20:03:45.171Z,30.63
2023-03-06T20:06:15.467Z,28.00
2023-03-06T20:08:42.839Z,31.93
2023-03-06T20:11:20.524Z,26.87
2023-03-06T20:13:48.022Z,26.67
2023-03-06T20:16:15.541Z,28.70
2023-03-06T20:18:42.486Z,26.13
2023-03-06T20:21:09.458Z,25.80
2023-03-06T20:23:36.135Z,31.13
2023-03-06T20:26:05.946Z,26.30
2023-03-06T20:28:33.491Z,29.73
2023-03-06T20:31:06.190Z,35.50
2023-03-06T20:33:32.880Z,27.87
2023-03-06T20:35:59.705Z,31.93
2023-03-06T20:38:26.615Z,28.27
2023-03-06T20:40:57.825Z,30.57
2023-03-06T20:43:24.371Z,25.27
2023-03-06T20:46:02.655Z,27.20
2023-03-06T20:48:29.651Z,23.00
2023-03-06T20:51:04.623Z,25.83
2023-03-06T20:53:31.847Z,25.13
2023-03-06T20:55:58.632Z,25.60
2023-03-06T20:58:28.609Z,25.57
2023-03-06T21:00:55.278Z,25.70
2023-03-06T21:03:22.119Z,26.70
2023-03-06T21:05:48.853Z,27.07
2023-03-06T21:08:16.301Z,26.63
2023-03-06T21:10:45.093Z,27.07
2023-03-06T21:13:11.695Z,30.50
2023-03-06T21:15:39.903Z,24.63
2023-03-06T21:18:06.815Z,31.70
2023-03-06T21:20:34.058Z,26.07
2023-03-06T21:23:01.772Z,27.00
2023-03-06T21:25:29.124Z,26.70
2023-03-06T21:27:56.389Z,26.37
2023-03-06T21:30:23.072Z,30.83
2023-03-06T21:32:51.551Z,25.30
2023-03-06T21:35:19.344Z,24.90
2023-03-06T21:37:46.584Z,21.60
2023-03-06T21:40:14.347Z,23.63
2023-03-06T21:42:41.356Z,32.87
2023-03-06T21:45:08.573Z,23.37
2023-03-06T21:47:38.899Z,30.20
2023-03-06T21:50:07.178Z,21.07
2023-03-06T21:52:33.755Z,24.80
2023-03-06T21:55:00.515Z,31.77
2023-03-06T21:57:27.192Z,23.53
2023-03-06T21:59:53.752Z,25.30
2023-03-06T22:02:20.706Z,28.43
2023-03-06T22:04:52.465Z,26.70
2023-03-06T22:07:20.160Z,24.33
2023-03-06T22:09:47.247Z,25.43
2023-03-06T22:12:13.931Z,22.23
2023-03-06T22:14:41.414Z,24.17
2023-03-06T22:17:07.988Z,24.73
2023-03-06T22:19:34.621Z,22.53
2023-03-06T22:22:01.287Z,24.07
2023-03-06T22:24:28.303Z,22.90
2023-03-06T22:26:55.024Z,26.70
2023-03-06T22:29:21.517Z,23.00
2023-03-06T22:31:48.062Z,24.60
2023-03-06T22:34:14.651Z,22.03
2023-03-06T22:36:41.300Z,27.00
2023-03-06T22:39:07.885Z,23.80
2023-03-06T22:41:34.493Z,25.13
2023-03-06T22:44:02.451Z,29.77
2023-03-06T22:46:30.481Z,28.50
2023-03-06T22:48:57.914Z,27.63
2023-03-06T22:51:25.588Z,27.93
2023-03-06T22:53:52.250Z,28.60
2023-03-06T22:56:20.688Z,27.07
2023-03-06T22:58:47.629Z,28.90
2023-03-06T23:01:15.565Z,29.27
2023-03-06T23:03:44.508Z,26.60
2023-03-06T23:06:15.544Z,31.73
2023-03-06T23:08:42.804Z,24.60
2023-03-06T23:11:15.122Z,26.30
2023-03-06T23:13:44.613Z,26.70
2023-03-06T23:16:11.875Z,23.50
2023-03-06T23:18:39.309Z,26.30
2023-03-06T23:21:11.269Z,28.80
2023-03-06T23:23:38.210Z,27.60
2023-03-06T23:26:09.823Z,25.30
2023-03-06T23:28:36.532Z,25.77
2023-03-06T23:31:15.110Z,27.40
2023-03-06T23:33:41.828Z,24.47
2023-03-06T23:36:11.645Z,26.07
2023-03-06T23:38:38.745Z,27.03
2023-03-06T23:41:07.689Z,27.53
2023-03-06T23:43:34.923Z,27.87
2023-03-06T23:46:01.615Z,22.43
2023-03-06T23:48:29.100Z,26.10
2023-03-06T23:50:56.433Z,27.57
2023-03-06T23:53:23.261Z,31.90
2023-03-06T23:55:50.924Z,23.77
2023-03-06T23:58:20.738Z,29.40
